Forside
METAR-TAF:

METAR-TAF

Lufthavne :

Kansas City, Missouri, USA

Breddekreds: 39-17-50N, længdekreds: 094-43-50W, højde: 312 m

Aktuelle vejr

Denne rapport blev lavet for 29 minutter siden, kl. 02:53 UTC
Vind 8 kt fra vestsydvest
Temperatur 4°C
Fugtighed 65%
Tryk 1016 hPa
Sigt: 16.1 km
skyfri

METAR: KMCI 160253Z 24008KT 10SM CLR 04/M02 A3000 RMK AO2 SLP165 T00391017 51012

Tid: 21:22 (03:22 UTC)

Vejrudsigter

Denne rapport blev lavet for 3 timer og 48 minutter siden, kl. 23:34 UTC
Foreløbig gælder fra 16 på 00 UTC til 16 på 24 UTC
Vind 5 kt fra vestsydvest
Sigt: 10 km
skyfri
Fra 16 på 0600 UTC
Vind 7 kt fra vestnordvest
Sigt: 10 km
skyfri
Fra 16 på 1300 UTC
Vind 5 kt fra varierende retninger
Sigt: 10 km
Nogle få skyer i en højde af 25000 ft

TAF: KMCI 152334Z 1600/1624 24005KT P6SM SKC FM160600 30007KT P6SM SKC WS020/34035KT FM161300 VRB05KT P6SM FEW250

Vejrobservationer og prognoser fra mere end 4000 lufthavne (METAR og TAF).

De gule og røde prikker repræsenterer de meteorologiske stationer.

Flyt musen over at se navnet på stationen.

Så klik over at se vejr observationer og prognoser.

At skifte det kort: Klik på de grønne knapper med et sort kors for at zoome ind; på den grønne knap med en bindestreg for at zoome ud; eller på de grønne pile for tilstødende kort.


METAR-TAF: